Time;durP1;ratioP1;P1;durP2;ratioP2;P2;SDS_P1;SDS_P2;PMS_P1;PMS_P2;Temp;Humidity;BMP_temperature;BMP_pressure;BME280_temperature;BME280_humidity;BME280_pressure;Samples;Min_cycle;Max_cycle;Signal;HPM_P1;HPM_P2
2021/04/01 00:01:16;;;;;;;7.53;6.83;;;10.70;99.50;;;;;;5012809;28;20221;-79
2021/04/01 00:03:45;;;;;;;7.90;7.20;;;10.60;99.80;;;;;;5009038;28;20213;-78
2021/04/01 00:06:12;;;;;;;7.40;6.70;;;10.60;99.50;;;;;;5006881;28;20205;-79
2021/04/01 00:08:41;;;;;;;7.20;6.50;;;10.60;99.60;;;;;;5008044;28;20193;-79
2021/04/01 00:11:08;;;;;;;7.43;6.83;;;10.60;99.90;;;;;;5009498;28;20284;-79
2021/04/01 00:13:35;;;;;;;7.90;6.90;;;10.60;99.90;;;;;;5001447;28;20189;-79
2021/04/01 00:16:01;;;;;;;7.20;6.53;;;10.60;99.90;;;;;;5008223;28;20208;-79
2021/04/01 00:18:27;;;;;;;7.77;7.07;;;10.60;99.90;;;;;;5008335;28;20205;-80
2021/04/01 00:20:54;;;;;;;7.30;6.60;;;10.50;99.90;;;;;;5007026;28;20216;-79
2021/04/01 00:23:21;;;;;;;6.97;6.37;;;10.50;99.90;;;;;;5008481;28;20225;-79
2021/04/01 00:25:47;;;;;;;6.97;6.37;;;10.50;99.90;;;;;;5009339;28;20254;-77
2021/04/01 00:28:14;;;;;;;7.30;6.77;;;10.40;99.90;;;;;;5007860;28;20212;-78
2021/04/01 00:30:40;;;;;;;7.30;6.70;;;10.40;99.90;;;;;;5008163;28;20205;-80
2021/04/01 00:33:07;;;;;;;7.13;6.43;;;10.30;99.90;;;;;;5007611;28;20221;-78
2021/04/01 00:35:33;;;;;;;7.10;6.50;;;10.30;99.90;;;;;;5000576;28;20205;-79
2021/04/01 00:37:59;;;;;;;8.17;6.60;;;10.20;99.90;;;;;;5008032;28;20267;-78
2021/04/01 00:40:27;;;;;;;7.67;6.80;;;10.20;99.90;;;;;;5008071;28;20300;-79
2021/04/01 00:42:54;;;;;;;7.33;6.73;;;10.20;99.90;;;;;;5007715;28;20674;-79
2021/04/01 00:45:21;;;;;;;7.27;6.60;;;10.20;99.90;;;;;;5007216;28;20197;-79
2021/04/01 00:47:49;;;;;;;7.83;7.13;;;10.10;99.90;;;;;;5007593;28;20236;-79
2021/04/01 00:50:18;;;;;;;7.33;6.73;;;10.10;99.90;;;;;;5007459;28;20254;-80
2021/04/01 00:52:44;;;;;;;8.20;6.80;;;10.10;99.90;;;;;;5007391;28;20214;-79
2021/04/01 00:55:12;;;;;;;7.50;6.80;;;10.00;99.90;;;;;;5006891;28;20204;-79
2021/04/01 00:57:41;;;;;;;7.57;6.87;;;9.90;99.90;;;;;;5006935;28;20201;-79
2021/04/01 01:00:10;;;;;;;7.23;6.53;;;9.90;99.90;;;;;;5008310;28;20201;-78
2021/04/01 01:02:36;;;;;;;8.07;7.03;;;9.80;99.90;;;;;;4999557;28;20772;-79
2021/04/01 01:05:04;;;;;;;8.83;7.20;;;9.70;99.90;;;;;;5008423;28;20719;-79
2021/04/01 01:07:30;;;;;;;8.13;7.40;;;9.60;99.90;;;;;;5007976;28;20189;-78
2021/04/01 01:09:56;;;;;;;8.67;7.57;;;9.50;99.90;;;;;;5005184;28;20204;-79
2021/04/01 01:12:23;;;;;;;7.63;6.90;;;9.50;99.90;;;;;;5055908;23;20257;-77
2021/04/01 01:14:50;;;;;;;7.63;6.87;;;9.40;99.90;;;;;;5039837;28;20199;-77
2021/04/01 01:17:17;;;;;;;8.43;7.10;;;9.40;99.90;;;;;;5039502;28;20580;-78
2021/04/01 01:19:53;;;;;;;8.43;7.77;;;9.30;99.90;;;;;;5046388;28;20195;-77
2021/04/01 01:22:21;;;;;;;8.37;7.60;;;9.30;99.90;;;;;;5038154;28;20748;-77
2021/04/01 01:24:49;;;;;;;8.20;7.40;;;9.30;99.90;;;;;;5043380;28;20194;-77
2021/04/01 01:27:16;;;;;;;8.47;7.67;;;9.30;99.90;;;;;;5041650;28;20203;-77
2021/04/01 01:29:47;;;;;;;8.17;7.37;;;9.30;99.90;;;;;;5040230;28;20203;-77
2021/04/01 01:32:14;;;;;;;8.90;8.00;;;9.20;99.90;;;;;;5039902;28;20211;-77
2021/04/01 01:34:41;;;;;;;7.93;7.23;;;9.30;99.90;;;;;;5035564;28;20672;-77
2021/04/01 01:37:07;;;;;;;8.00;7.40;;;9.20;99.90;;;;;;5033229;28;20189;-77
2021/04/01 01:39:34;;;;;;;8.03;7.40;;;9.20;99.90;;;;;;5031325;28;20208;-77
2021/04/01 01:42:02;;;;;;;8.40;7.60;;;9.20;99.90;;;;;;5037648;28;20234;-77
2021/04/01 01:44:29;;;;;;;7.53;6.93;;;9.20;99.90;;;;;;5049071;28;20239;-78
2021/04/01 01:46:56;;;;;;;7.70;7.10;;;9.20;99.90;;;;;;5034364;28;20200;-77
2021/04/01 01:49:22;;;;;;;8.30;7.60;;;9.20;99.90;;;;;;5035757;28;20311;-77
2021/04/01 01:51:49;;;;;;;7.60;6.90;;;9.20;99.90;;;;;;5043170;28;20616;-78
2021/04/01 01:54:15;;;;;;;8.50;7.70;;;9.10;99.90;;;;;;5044495;28;20192;-77
2021/04/01 01:56:41;;;;;;;8.30;7.60;;;9.10;99.90;;;;;;5040030;28;20245;-77
2021/04/01 01:59:09;;;;;;;8.37;7.50;;;9.20;99.90;;;;;;5040829;28;20207;-77
2021/04/01 02:01:35;;;;;;;8.00;7.30;;;9.10;99.90;;;;;;5026308;28;20211;-77
2021/04/01 02:04:03;;;;;;;8.03;7.30;;;9.20;99.90;;;;;;5035216;28;20192;-77
2021/04/01 02:06:29;;;;;;;9.13;8.33;;;9.20;99.90;;;;;;5040733;28;20196;-77
2021/04/01 02:08:58;;;;;;;8.87;7.90;;;9.20;99.90;;;;;;5036647;28;20561;-77
2021/04/01 02:11:26;;;;;;;8.80;8.00;;;9.20;99.90;;;;;;5034683;28;20262;-77
2021/04/01 02:13:53;;;;;;;9.83;8.97;;;9.10;99.90;;;;;;5033077;28;20477;-77
2021/04/01 02:16:21;;;;;;;11.03;8.00;;;9.20;99.90;;;;;;5040925;28;20194;-78
2021/04/01 02:18:47;;;;;;;8.60;7.90;;;9.10;99.90;;;;;;5037669;28;20600;-77
2021/04/01 02:21:16;;;;;;;8.57;7.87;;;9.10;99.90;;;;;;5036384;28;20235;-77
2021/04/01 02:23:44;;;;;;;8.90;8.00;;;9.10;99.90;;;;;;5046375;28;20336;-77
2021/04/01 02:26:10;;;;;;;9.30;8.30;;;9.00;99.90;;;;;;5034136;28;20250;-78
2021/04/01 02:28:37;;;;;;;8.77;8.07;;;9.00;99.90;;;;;;5040426;28;20187;-78
2021/04/01 02:31:05;;;;;;;8.70;7.90;;;9.00;99.90;;;;;;5038875;28;20214;-78
2021/04/01 02:33:34;;;;;;;10.07;8.40;;;8.90;99.90;;;;;;5037344;28;20192;-79
2021/04/01 02:36:01;;;;;;;9.87;8.03;;;8.80;99.90;;;;;;5027588;28;20195;-80
2021/04/01 02:38:28;;;;;;;8.33;7.63;;;8.80;99.90;;;;;;5039670;28;20203;-76
2021/04/01 02:40:55;;;;;;;8.23;7.53;;;8.70;99.90;;;;;;5046089;28;20559;-77
2021/04/01 02:43:27;;;;;;;10.60;8.60;;;8.80;99.90;;;;;;5038799;28;20266;-77
2021/04/01 02:45:53;;;;;;;10.97;9.17;;;8.70;99.90;;;;;;5037654;28;20242;-80
2021/04/01 02:48:19;;;;;;;8.53;7.83;;;8.70;99.90;;;;;;5039785;28;20191;-77
2021/04/01 02:50:47;;;;;;;9.87;8.00;;;8.70;99.90;;;;;;5041641;28;20257;-77
2021/04/01 02:53:13;;;;;;;8.83;8.03;;;8.80;99.90;;;;;;5034842;28;20207;-77
2021/04/01 02:55:39;;;;;;;9.83;7.60;;;8.80;99.90;;;;;;5030216;28;20199;-77
2021/04/01 02:58:06;;;;;;;11.20;9.27;;;8.80;99.90;;;;;;5029001;28;20203;-77
2021/04/01 03:00:34;;;;;;;10.33;9.20;;;8.80;99.90;;;;;;5035077;28;20714;-76
2021/04/01 03:03:04;;;;;;;8.30;7.57;;;8.70;99.90;;;;;;5021451;28;20247;-76
2021/04/01 03:05:30;;;;;;;9.07;8.30;;;8.70;99.90;;;;;;5035142;28;20199;-76
2021/04/01 03:07:57;;;;;;;8.70;7.80;;;8.70;99.90;;;;;;5035510;28;20621;-77
2021/04/01 03:10:24;;;;;;;9.90;9.00;;;8.60;99.90;;;;;;5037778;28;20668;-76
2021/04/01 03:12:50;;;;;;;8.90;7.90;;;8.60;99.90;;;;;;5021577;28;20248;-76
2021/04/01 03:15:18;;;;;;;9.40;8.60;;;8.60;99.90;;;;;;5039006;28;20585;-76
2021/04/01 03:17:44;;;;;;;9.90;8.90;;;8.60;99.90;;;;;;5038952;28;20212;-76
2021/04/01 03:20:12;;;;;;;8.43;7.60;;;8.60;99.90;;;;;;5036175;28;20196;-79
2021/04/01 03:22:39;;;;;;;8.53;7.83;;;8.60;99.90;;;;;;5034436;28;20229;-75
2021/04/01 03:25:09;;;;;;;11.90;8.70;;;8.70;99.90;;;;;;5045212;28;20255;-76
2021/04/01 03:27:36;;;;;;;8.87;8.17;;;8.60;99.90;;;;;;5030087;28;20202;-76
2021/04/01 03:30:05;;;;;;;8.50;7.80;;;8.70;99.90;;;;;;5038279;28;20194;-76
2021/04/01 03:32:32;;;;;;;8.60;7.90;;;8.70;99.90;;;;;;5032740;28;20222;-76
2021/04/01 03:34:59;;;;;;;9.33;8.53;;;8.70;99.90;;;;;;5034034;28;20203;-76
2021/04/01 03:37:25;;;;;;;10.07;9.17;;;8.80;99.90;;;;;;5039606;28;20217;-77
2021/04/01 03:39:52;;;;;;;9.37;8.57;;;8.80;99.90;;;;;;5033199;28;20201;-76
2021/04/01 03:42:20;;;;;;;11.10;8.80;;;8.90;99.90;;;;;;5036017;28;20221;-76
2021/04/01 03:44:46;;;;;;;11.50;9.20;;;8.90;99.90;;;;;;5035645;28;20197;-76
2021/04/01 03:47:12;;;;;;;9.20;8.40;;;8.90;99.90;;;;;;5032347;28;20734;-75
2021/04/01 03:49:39;;;;;;;9.83;8.90;;;8.80;99.90;;;;;;5040645;28;20204;-76
2021/04/01 03:52:06;;;;;;;11.30;9.47;;;8.80;99.90;;;;;;5033700;28;20212;-76
2021/04/01 03:54:33;;;;;;;9.63;8.83;;;8.70;99.90;;;;;;5040652;28;20202;-76
2021/04/01 03:57:00;;;;;;;9.50;8.67;;;8.70;99.90;;;;;;5039238;28;20194;-76
2021/04/01 03:59:32;;;;;;;8.93;8.20;;;8.60;99.90;;;;;;5035469;28;20213;-76
2021/04/01 04:05:02;;;;;;;9.60;8.70;;;8.50;99.90;;;;;;5015351;28;20207;-76
2021/04/01 04:07:52;;;;;;;9.53;8.70;;;8.50;99.90;;;;;;5038912;28;20251;-76
2021/04/01 04:10:24;;;;;;;9.87;8.90;;;8.50;99.90;;;;;;5038866;28;20201;-76
2021/04/01 04:13:06;;;;;;;10.43;9.30;;;8.50;99.90;;;;;;5030336;28;20210;-76
2021/04/01 04:15:33;;;;;;;8.83;8.03;;;8.50;99.90;;;;;;5028504;28;20248;-76
2021/04/01 04:18:00;;;;;;;9.33;8.53;;;8.50;99.90;;;;;;5029560;28;20213;-76
2021/04/01 04:20:27;;;;;;;10.87;8.83;;;8.50;99.90;;;;;;5037248;28;20629;-76
2021/04/01 04:22:53;;;;;;;9.30;8.47;;;8.50;99.90;;;;;;5037685;28;20719;-76
2021/04/01 04:25:20;;;;;;;13.10;8.97;;;8.50;99.90;;;;;;5039160;28;20216;-76
2021/04/01 04:28:02;;;;;;;9.93;9.00;;;8.50;99.90;;;;;;5036982;28;20209;-76
2021/04/01 04:30:29;;;;;;;9.40;8.50;;;8.50;99.90;;;;;;5036531;28;20206;-76
2021/04/01 04:32:56;;;;;;;10.10;8.70;;;8.50;99.90;;;;;;5035716;28;20704;-76
2021/04/01 04:35:23;;;;;;;9.90;8.70;;;8.50;99.90;;;;;;5031631;28;20214;-76
2021/04/01 04:37:49;;;;;;;9.80;8.80;;;8.50;99.90;;;;;;5033951;28;20204;-76
2021/04/01 04:40:16;;;;;;;8.73;8.03;;;8.50;99.90;;;;;;5038013;28;20194;-76
2021/04/01 04:42:43;;;;;;;9.97;8.97;;;8.50;99.90;;;;;;5031314;28;20214;-77
2021/04/01 04:45:09;;;;;;;8.30;7.60;;;8.50;99.90;;;;;;5032430;28;20552;-76
2021/04/01 04:47:36;;;;;;;10.13;8.23;;;8.50;99.90;;;;;;5038585;28;20255;-76
2021/04/01 04:50:05;;;;;;;11.03;9.97;;;8.50;99.90;;;;;;5040124;28;20285;-76
2021/04/01 04:52:33;;;;;;;9.10;8.10;;;8.50;99.90;;;;;;5034059;28;20220;-76
2021/04/01 04:55:01;;;;;;;9.70;8.90;;;8.50;99.90;;;;;;5036849;28;20312;-76
2021/04/01 04:57:32;;;;;;;8.97;8.27;;;8.50;99.90;;;;;;5042372;28;20198;-76
2021/04/01 05:05:28;;;;;;;10.00;8.33;;;8.50;99.90;;;;;;5034773;28;20243;-76
2021/04/01 05:07:54;;;;;;;9.13;8.30;;;8.50;99.90;;;;;;5031394;28;20198;-76
2021/04/01 05:10:21;;;;;;;9.57;8.00;;;8.50;99.90;;;;;;5039789;28;20189;-76
2021/04/01 05:12:52;;;;;;;10.73;8.10;;;8.50;99.90;;;;;;5038503;28;20703;-76
2021/04/01 05:15:20;;;;;;;9.83;8.20;;;8.50;99.90;;;;;;5034655;28;20281;-76
2021/04/01 05:17:46;;;;;;;10.87;9.13;;;8.50;99.90;;;;;;5037520;28;20202;-76
2021/04/01 05:20:14;;;;;;;8.77;7.97;;;8.50;99.90;;;;;;5038533;28;20198;-76
2021/04/01 05:22:46;;;;;;;8.77;7.97;;;8.50;99.90;;;;;;5035775;28;20226;-76
2021/04/01 05:25:13;;;;;;;9.10;8.20;;;8.60;99.90;;;;;;5036165;28;20231;-76
2021/04/01 05:27:43;;;;;;;8.93;7.97;;;8.60;99.90;;;;;;5030869;28;20221;-77
2021/04/01 05:30:10;;;;;;;9.10;8.20;;;8.70;99.90;;;;;;5040509;28;20195;-76
2021/04/01 05:32:38;;;;;;;8.57;7.77;;;8.70;99.90;;;;;;5035224;28;20615;-76
2021/04/01 05:35:09;;;;;;;8.90;8.00;;;8.80;99.90;;;;;;5034967;28;20202;-76
2021/04/01 05:37:37;;;;;;;8.80;8.00;;;8.90;99.90;;;;;;5041946;28;20389;-76
2021/04/01 05:40:06;;;;;;;10.10;9.10;;;9.00;99.90;;;;;;5035959;28;20666;-76
2021/04/01 05:42:37;;;;;;;9.33;8.27;;;9.10;99.90;;;;;;5029461;28;20206;-76
2021/04/01 05:45:11;;;;;;;9.73;8.70;;;9.10;99.90;;;;;;5041926;28;20206;-76
2021/04/01 05:47:41;;;;;;;9.57;8.13;;;9.20;99.90;;;;;;5040676;28;20195;-76
2021/04/01 05:50:18;;;;;;;11.53;8.30;;;9.30;99.90;;;;;;5036178;28;20570;-76
2021/04/01 06:04:22;;;;;;;11.40;8.87;;;10.20;99.90;;;;;;5013414;28;20270;-76
2021/04/01 06:06:53;;;;;;;9.70;8.70;;;10.30;99.90;;;;;;5030321;28;20623;-76
2021/04/01 06:09:22;;;;;;;9.57;8.77;;;10.40;99.90;;;;;;5029674;28;20193;-76
2021/04/01 06:11:53;;;;;;;9.20;8.30;;;10.60;99.90;;;;;;5040878;28;20218;-76
2021/04/01 06:14:53;;;;;;;9.30;8.17;;;10.60;99.90;;;;;;5035240;28;20185;-77
2021/04/01 06:17:20;;;;;;;10.27;8.83;;;10.70;99.90;;;;;;5035883;28;20192;-76
2021/04/01 06:19:48;;;;;;;8.43;7.63;;;10.70;99.90;;;;;;5040074;28;20656;-76
2021/04/01 06:22:16;;;;;;;9.13;7.50;;;10.90;99.90;;;;;;5038036;28;20269;-77
2021/04/01 06:24:45;;;;;;;6.70;6.00;;;10.90;99.90;;;;;;5035166;28;20195;-76
2021/04/01 06:27:17;;;;;;;7.00;5.60;;;11.10;99.90;;;;;;5037476;28;20199;-76
2021/04/01 06:30:11;;;;;;;7.37;6.67;;;11.30;99.90;;;;;;5032447;28;20276;-76
2021/04/01 06:32:36;;;;;;;7.40;6.53;;;11.40;99.90;;;;;;5030023;28;20326;-76
2021/04/01 06:35:10;;;;;;;8.73;6.93;;;11.60;99.90;;;;;;5028397;28;20200;-76
2021/04/01 06:37:52;;;;;;;6.87;5.40;;;11.90;99.90;;;;;;5029263;28;20222;-76
2021/04/01 06:40:19;;;;;;;7.67;6.77;;;12.10;99.90;;;;;;5036099;28;20192;-76
2021/04/01 06:42:53;;;;;;;7.43;6.77;;;12.30;99.90;;;;;;5041511;28;20215;-77
2021/04/01 06:45:23;;;;;;;8.73;7.77;;;12.40;99.90;;;;;;5040147;28;20183;-76
2021/04/01 06:47:55;;;;;;;6.77;5.60;;;12.60;99.90;;;;;;5036872;28;20192;-76
2021/04/01 06:50:24;;;;;;;5.37;4.70;;;12.80;99.90;;;;;;5039609;28;20235;-77
2021/04/01 06:52:58;;;;;;;6.70;4.83;;;12.90;99.90;;;;;;5034373;28;20212;-77
2021/04/01 06:55:28;;;;;;;6.87;4.57;;;13.00;99.90;;;;;;5030484;28;20210;-77
2021/04/01 06:58:05;;;;;;;7.27;4.23;;;13.20;99.90;;;;;;5031928;28;20353;-76
2021/04/01 07:00:42;;;;;;;7.63;4.37;;;13.40;99.90;;;;;;5038236;28;20201;-77
2021/04/01 07:03:13;;;;;;;7.87;5.27;;;13.60;99.90;;;;;;5032053;28;20637;-77
2021/04/01 07:05:47;;;;;;;5.13;4.30;;;13.90;99.90;;;;;;5043366;28;20193;-77
2021/04/01 07:08:15;;;;;;;7.77;4.50;;;14.30;99.90;;;;;;5036494;28;20200;-77
2021/04/01 07:10:49;;;;;;;7.10;5.63;;;14.70;99.90;;;;;;5035896;28;20202;-77
2021/04/01 07:13:22;;;;;;;6.67;5.33;;;14.90;99.90;;;;;;5042224;28;20199;-76
2021/04/01 07:15:53;;;;;;;7.13;5.87;;;15.20;99.90;;;;;;5035117;28;20707;-77
2021/04/01 07:18:31;;;;;;;6.97;5.83;;;15.50;99.90;;;;;;5035208;28;20211;-77
2021/04/01 07:32:35;;;;;;;6.67;5.63;;;16.60;99.90;;;;;;5016935;28;20230;-77
2021/04/01 07:35:27;;;;;;;7.83;4.90;;;17.00;99.90;;;;;;5036773;28;20388;-75
2021/04/01 07:46:29;;;;;;;7.87;5.27;;;18.70;99.90;;;;;;5028839;28;20276;-74
2021/04/01 07:49:02;;;;;;;7.53;4.77;;;19.10;99.80;;;;;;5032030;28;20192;-75
2021/04/01 07:51:43;;;;;;;8.57;5.97;;;19.40;97.90;;;;;;5036629;28;20710;-75
2021/04/01 07:54:11;;;;;;;8.47;6.60;;;19.50;97.20;;;;;;5032854;28;20196;-75
2021/04/01 07:56:42;;;;;;;9.97;6.33;;;19.60;96.90;;;;;;5042031;28;20734;-74
2021/04/01 08:02:21;;;;;;;7.93;6.20;;;20.30;96.00;;;;;;5033245;28;20219;-75
2021/04/01 08:04:48;;;;;;;10.97;6.80;;;20.60;95.30;;;;;;5031876;28;20291;-75
2021/04/01 08:07:16;;;;;;;9.17;6.40;;;20.80;95.00;;;;;;5035607;28;20253;-74
2021/04/01 08:09:47;;;;;;;6.93;6.13;;;21.00;95.50;;;;;;5030208;28;20661;-75
2021/04/01 08:12:23;;;;;;;8.23;6.97;;;21.20;94.70;;;;;;5033464;28;20270;-75
2021/04/01 08:14:55;;;;;;;8.07;6.63;;;21.20;93.70;;;;;;5049462;28;20188;-75
2021/04/01 08:17:27;;;;;;;9.83;7.53;;;21.40;93.70;;;;;;5034273;28;20745;-74
2021/04/01 08:19:57;;;;;;;10.77;6.60;;;21.60;93.60;;;;;;5040385;28;20205;-75
2021/04/01 08:22:27;;;;;;;9.33;6.60;;;21.90;93.10;;;;;;5044162;28;20222;-74
2021/04/01 08:24:56;;;;;;;11.53;7.00;;;22.00;92.20;;;;;;5039848;28;20206;-74
2021/04/01 08:27:30;;;;;;;11.33;7.27;;;22.10;92.40;;;;;;5039808;28;20206;-75
2021/04/01 08:33:05;;;;;;;9.73;8.73;;;22.50;91.80;;;;;;5027630;28;20643;-75
2021/04/01 08:35:33;;;;;;;13.03;8.73;;;22.90;92.20;;;;;;5032909;28;20202;-75
2021/04/01 08:38:10;;;;;;;9.50;8.43;;;23.10;91.80;;;;;;5032426;28;20732;-75
2021/04/01 08:40:37;;;;;;;8.93;7.97;;;23.10;91.60;;;;;;5033020;28;20195;-74
2021/04/01 08:43:38;;;;;;;9.60;8.60;;;23.40;91.60;;;;;;5039537;28;20227;-75
2021/04/01 08:46:37;;;;;;;9.63;8.57;;;23.30;91.30;;;;;;5034915;28;20203;-74
2021/04/01 08:49:17;;;;;;;9.13;8.20;;;22.90;92.50;;;;;;5008699;28;20211;-75
2021/04/01 08:52:00;;;;;;;10.37;8.47;;;23.10;92.00;;;;;;5049795;28;20270;-74
2021/04/01 08:54:34;;;;;;;10.97;8.83;;;23.40;91.60;;;;;;5042473;28;20196;-74
2021/04/01 08:57:08;;;;;;;9.67;7.30;;;23.70;91.10;;;;;;5023071;28;20197;-74
2021/04/01 08:59:47;;;;;;;8.90;8.00;;;23.80;91.00;;;;;;5031190;28;20207;-75
2021/04/01 09:02:18;;;;;;;8.07;7.27;;;24.20;91.40;;;;;;5031909;28;20777;-75
2021/04/01 09:04:49;;;;;;;8.20;7.50;;;24.70;91.10;;;;;;5041858;28;20202;-75
2021/04/01 09:07:24;;;;;;;7.53;6.83;;;25.10;89.80;;;;;;5036859;28;20193;-75
2021/04/01 09:09:52;;;;;;;8.27;7.23;;;25.40;87.60;;;;;;5038877;28;20303;-74
2021/04/01 09:12:23;;;;;;;7.50;6.80;;;25.60;86.10;;;;;;5041235;28;20710;-75
2021/04/01 09:15:00;;;;;;;9.20;6.70;;;25.70;85.10;;;;;;5027181;28;20667;-75
2021/04/01 09:17:32;;;;;;;8.77;7.57;;;25.90;84.90;;;;;;5038229;28;20223;-74
2021/04/01 09:20:10;;;;;;;7.37;6.30;;;26.20;82.10;;;;;;5038574;28;20256;-76
2021/04/01 09:22:43;;;;;;;7.03;5.97;;;26.40;82.00;;;;;;5024077;28;20572;-75
2021/04/01 09:25:10;;;;;;;6.63;6.00;;;26.40;81.70;;;;;;5030022;28;20205;-75
2021/04/01 09:27:44;;;;;;;10.43;6.80;;;26.70;81.80;;;;;;5041734;28;20197;-75
2021/04/01 09:30:12;;;;;;;8.13;6.27;;;27.10;82.90;;;;;;5034849;28;20223;-77
2021/04/01 09:32:39;;;;;;;6.47;5.77;;;27.50;78.90;;;;;;5042208;28;20207;-75
2021/04/01 09:35:08;;;;;;;6.93;6.27;;;27.70;77.30;;;;;;5037943;28;20243;-75
2021/04/01 09:37:35;;;;;;;7.53;6.47;;;27.80;77.20;;;;;;5032608;28;20192;-75
2021/04/01 09:40:09;;;;;;;7.90;6.90;;;28.00;75.40;;;;;;5036150;28;20187;-76
2021/04/01 09:42:41;;;;;;;9.37;6.93;;;27.90;76.50;;;;;;5022440;28;20673;-76
2021/04/01 09:45:09;;;;;;;8.90;6.03;;;27.60;75.40;;;;;;5029727;28;20247;-76
2021/04/01 09:47:44;;;;;;;7.80;7.10;;;27.40;74.80;;;;;;5027191;28;20207;-76
2021/04/01 09:50:14;;;;;;;7.80;7.00;;;27.20;75.10;;;;;;5047474;28;20197;-76
2021/04/01 09:52:42;;;;;;;8.03;6.77;;;27.10;74.40;;;;;;5034619;28;20274;-76
2021/04/01 09:55:14;;;;;;;10.20;7.57;;;26.80;75.90;;;;;;5044169;28;20195;-76
2021/04/01 09:57:45;;;;;;;7.87;7.17;;;26.60;72.30;;;;;;5037967;28;20196;-76
2021/04/01 10:00:19;;;;;;;8.20;7.50;;;26.30;73.10;;;;;;5041898;28;20242;-75
2021/04/01 10:02:56;;;;;;;6.33;5.40;;;26.10;73.10;;;;;;5037539;28;20246;-76
2021/04/01 10:05:26;;;;;;;7.20;5.60;;;26.00;76.20;;;;;;5037280;28;20742;-76
2021/04/01 10:07:57;;;;;;;5.33;4.50;;;25.70;77.00;;;;;;5032600;28;20221;-76
2021/04/01 10:10:36;;;;;;;7.03;3.50;;;25.30;76.50;;;;;;5028969;28;20204;-76
2021/04/01 10:13:14;;;;;;;4.60;3.30;;;25.10;77.40;;;;;;5029742;28;20651;-76
2021/04/01 10:15:40;;;;;;;4.57;4.17;;;25.00;75.90;;;;;;5036780;28;20558;-75
2021/04/01 10:18:08;;;;;;;5.23;4.27;;;24.90;76.70;;;;;;5035703;28;20203;-75
2021/04/01 10:20:36;;;;;;;7.33;3.77;;;24.80;76.50;;;;;;5031524;28;20196;-76
2021/04/01 10:23:07;;;;;;;6.20;3.10;;;24.70;77.20;;;;;;5035409;28;20703;-75
2021/04/01 10:25:48;;;;;;;5.67;3.53;;;24.60;77.30;;;;;;5032569;28;20205;-75
2021/04/01 10:28:34;;;;;;;4.77;3.40;;;24.40;77.90;;;;;;5035203;28;20201;-76
2021/04/01 10:31:13;;;;;;;6.30;3.90;;;24.30;77.80;;;;;;5031999;28;20200;-75
2021/04/01 10:33:53;;;;;;;5.17;3.37;;;24.10;77.80;;;;;;5036655;28;20341;-75
2021/04/01 10:36:26;;;;;;;5.27;3.17;;;24.10;79.70;;;;;;5036004;28;20203;-75
2021/04/01 10:38:57;;;;;;;3.90;3.03;;;24.10;78.00;;;;;;5039335;28;20578;-75
2021/04/01 10:41:25;;;;;;;4.37;3.20;;;24.20;77.10;;;;;;5041544;28;20224;-75
2021/04/01 10:43:59;;;;;;;3.70;2.97;;;24.30;77.80;;;;;;5034407;28;20220;-75
2021/04/01 10:46:26;;;;;;;7.20;3.03;;;24.30;76.50;;;;;;5037133;28;20344;-76
2021/04/01 10:48:55;;;;;;;5.50;3.30;;;24.40;77.10;;;;;;5033446;28;20203;-76
2021/04/01 10:51:24;;;;;;;6.23;4.10;;;24.40;76.30;;;;;;5028521;28;20220;-75
2021/04/01 10:53:51;;;;;;;7.50;4.43;;;24.40;77.50;;;;;;5038742;28;20210;-75
2021/04/01 10:56:17;;;;;;;5.90;4.43;;;24.40;76.50;;;;;;5037246;28;20201;-76
2021/04/01 10:58:52;;;;;;;6.77;4.00;;;24.50;76.70;;;;;;5043371;28;20198;-75
2021/04/01 11:01:21;;;;;;;6.33;3.50;;;24.40;76.60;;;;;;5038490;28;20215;-75
2021/04/01 11:03:52;;;;;;;4.10;3.10;;;24.50;76.50;;;;;;5036199;28;20688;-76
2021/04/01 11:06:19;;;;;;;3.63;3.17;;;24.60;75.90;;;;;;5038702;28;20676;-76
2021/04/01 11:08:49;;;;;;;4.57;3.10;;;24.60;74.90;;;;;;5035274;28;20241;-76
2021/04/01 11:11:16;;;;;;;3.77;2.80;;;24.70;75.20;;;;;;5032442;28;20259;-76
2021/04/01 11:13:45;;;;;;;3.00;2.70;;;24.70;74.40;;;;;;5037679;28;20201;-76
2021/04/01 11:16:14;;;;;;;3.53;2.80;;;24.70;74.00;;;;;;5037645;28;20614;-75
2021/04/01 11:18:46;;;;;;;3.27;2.63;;;24.80;74.30;;;;;;5033208;28;20653;-75
2021/04/01 11:21:14;;;;;;;4.87;2.83;;;24.80;74.70;;;;;;5031938;28;20226;-76
2021/04/01 11:23:42;;;;;;;4.17;3.20;;;24.70;73.30;;;;;;5037128;28;20298;-76
2021/04/01 11:26:10;;;;;;;3.77;2.77;;;24.80;73.30;;;;;;5038676;28;20199;-76
2021/04/01 11:28:39;;;;;;;3.53;2.90;;;24.80;73.70;;;;;;5034385;28;20191;-76
2021/04/01 11:31:06;;;;;;;4.20;2.80;;;24.80;74.40;;;;;;5037060;28;20219;-75
2021/04/01 11:33:36;;;;;;;3.07;2.27;;;24.80;73.60;;;;;;5030996;28;20528;-76
2021/04/01 11:36:10;;;;;;;5.77;2.73;;;24.90;74.30;;;;;;5035733;28;20275;-75
2021/04/01 11:38:42;;;;;;;3.90;2.60;;;24.80;73.40;;;;;;5034877;28;20621;-76
2021/04/01 11:41:12;;;;;;;4.90;2.90;;;24.80;74.20;;;;;;5034601;28;20219;-76
2021/04/01 11:43:39;;;;;;;5.33;2.73;;;24.80;73.90;;;;;;5028619;28;20199;-76
2021/04/01 11:46:14;;;;;;;5.67;2.77;;;24.80;74.40;;;;;;5027948;28;20717;-75
2021/04/01 11:48:41;;;;;;;3.53;2.73;;;24.80;73.90;;;;;;5030215;28;20241;-75
2021/04/01 11:51:12;;;;;;;3.27;2.60;;;24.70;74.20;;;;;;5033144;28;20227;-76
2021/04/01 11:53:40;;;;;;;3.80;2.53;;;24.80;74.30;;;;;;5040565;28;20187;-75
2021/04/01 11:56:07;;;;;;;2.60;2.40;;;24.90;74.60;;;;;;5039329;28;20192;-75
2021/04/01 11:58:34;;;;;;;3.50;2.90;;;25.00;74.90;;;;;;5040998;28;20207;-75
2021/04/01 12:01:07;;;;;;;4.10;3.07;;;25.10;74.60;;;;;;5034241;28;20203;-75
2021/04/01 12:03:49;;;;;;;6.03;2.83;;;25.20;75.00;;;;;;5030246;28;20580;-75
2021/04/01 12:06:16;;;;;;;3.03;2.53;;;25.20;72.80;;;;;;5040698;28;20551;-75
2021/04/01 12:08:42;;;;;;;4.90;3.00;;;25.30;74.60;;;;;;5036406;28;20195;-76
2021/04/01 12:11:09;;;;;;;4.47;3.20;;;25.30;73.00;;;;;;5043496;28;20215;-76
2021/04/01 12:13:36;;;;;;;7.13;4.70;;;25.40;73.00;;;;;;5037737;28;20188;-75
2021/04/01 12:16:02;;;;;;;9.03;3.60;;;25.30;72.60;;;;;;5041882;28;20207;-76
2021/04/01 12:18:40;;;;;;;5.87;3.20;;;25.30;71.80;;;;;;5043348;28;20214;-76
2021/04/01 12:21:07;;;;;;;5.50;2.90;;;25.30;72.00;;;;;;5042129;28;20217;-76
2021/04/01 12:23:42;;;;;;;3.20;2.70;;;25.30;72.30;;;;;;5029102;28;20226;-76
2021/04/01 12:26:09;;;;;;;5.03;3.00;;;25.40;72.00;;;;;;5034210;28;20681;-76
2021/04/01 12:28:36;;;;;;;4.67;2.60;;;25.50;72.30;;;;;;5043125;28;20197;-76
2021/04/01 12:31:02;;;;;;;3.83;2.87;;;25.60;72.60;;;;;;5039596;28;20217;-77
2021/04/01 12:33:29;;;;;;;4.00;2.80;;;25.80;72.20;;;;;;5039272;28;20194;-75
2021/04/01 12:35:57;;;;;;;5.03;3.40;;;25.90;71.80;;;;;;5036678;28;20194;-76
2021/04/01 12:38:29;;;;;;;10.07;4.53;;;25.90;72.30;;;;;;5031009;28;20204;-76
2021/04/01 12:40:56;;;;;;;4.23;3.90;;;25.80;71.80;;;;;;5033532;28;20197;-76
2021/04/01 12:43:30;;;;;;;6.40;4.00;;;25.90;72.20;;;;;;5040348;28;20509;-76
2021/04/01 12:45:57;;;;;;;7.10;4.47;;;25.90;72.50;;;;;;5045229;28;20282;-75
2021/04/01 12:48:24;;;;;;;5.57;3.33;;;25.90;72.30;;;;;;5045149;28;20196;-76
2021/04/01 12:50:52;;;;;;;3.47;2.90;;;25.80;70.60;;;;;;5038761;28;20196;-76
2021/04/01 12:53:21;;;;;;;3.57;2.97;;;25.80;71.30;;;;;;5038809;28;20660;-76
2021/04/01 12:55:51;;;;;;;5.17;2.90;;;25.90;71.50;;;;;;5034146;28;20286;-75
2021/04/01 12:58:32;;;;;;;4.03;3.10;;;26.00;72.00;;;;;;5031042;28;20245;-76
2021/04/01 13:01:11;;;;;;;4.70;3.07;;;25.90;72.00;;;;;;5033462;28;20196;-76
2021/04/01 13:03:37;;;;;;;4.07;3.00;;;26.00;71.50;;;;;;5039163;28;20211;-76
2021/04/01 13:06:07;;;;;;;3.50;2.90;;;26.00;72.70;;;;;;5037171;28;20229;-76
2021/04/01 13:08:50;;;;;;;4.73;2.63;;;26.20;72.00;;;;;;5033998;28;20203;-76
2021/04/01 13:14:14;;;;;;;3.03;2.60;;;26.10;70.10;;;;;;4962674;28;20235;-79
2021/04/01 13:16:42;;;;;;;2.93;2.50;;;26.00;70.70;;;;;;4983700;28;20199;-78
2021/04/01 13:19:10;;;;;;;3.70;2.60;;;25.70;70.50;;;;;;4970373;28;20202;-79
2021/04/01 13:21:40;;;;;;;4.23;3.00;;;25.70;72.90;;;;;;4973509;28;20747;-78
2021/04/01 13:24:14;;;;;;;5.57;2.87;;;25.40;74.60;;;;;;4989998;28;20213;-78
2021/04/01 13:26:41;;;;;;;6.07;3.30;;;25.30;74.30;;;;;;4984020;28;20200;-79
2021/04/01 13:29:09;;;;;;;6.40;4.23;;;25.10;73.00;;;;;;4998770;28;20270;-78
2021/04/01 13:31:43;;;;;;;6.93;4.80;;;25.10;75.40;;;;;;4987060;28;20573;-79
2021/04/01 13:34:15;;;;;;;5.83;4.60;;;24.90;76.60;;;;;;4980469;28;20218;-79
2021/04/01 13:36:44;;;;;;;5.80;4.80;;;24.60;75.50;;;;;;4993050;28;20206;-79
2021/04/01 13:39:16;;;;;;;9.53;4.90;;;24.40;77.50;;;;;;4983830;28;20204;-81
2021/04/01 13:42:05;;;;;;;6.00;4.80;;;24.20;78.80;;;;;;4990615;28;20218;-80
2021/04/01 13:44:35;;;;;;;8.60;6.27;;;24.10;78.30;;;;;;4976349;28;20220;-84
2021/04/01 13:47:02;;;;;;;9.70;5.87;;;24.10;79.60;;;;;;4977503;28;20190;-80
2021/04/01 13:49:31;;;;;;;9.33;6.93;;;24.00;79.90;;;;;;4982017;28;20235;-81
2021/04/01 13:52:05;;;;;;;12.80;5.77;;;24.10;80.80;;;;;;4995467;28;20253;-80
2021/04/01 13:54:44;;;;;;;7.97;4.07;;;24.20;79.70;;;;;;4975226;28;20217;-83